sensor_id;sensor_type;location;lat;lon;timestamp;temperature;humidity
21559;DHT22;10940;48.890;8.240;2023-12-20T00:00:18;6.00;99.90
21559;DHT22;10940;48.890;8.240;2023-12-20T00:02:43;6.00;99.90
21559;DHT22;10940;48.890;8.240;2023-12-20T00:05:13;5.90;99.90
21559;DHT22;10940;48.890;8.240;2023-12-20T00:07:39;6.00;99.90
21559;DHT22;10940;48.890;8.240;2023-12-20T00:10:05;5.90;99.90
21559;DHT22;10940;48.890;8.240;2023-12-20T00:12:30;6.00;99.90
21559;DHT22;10940;48.890;8.240;2023-12-20T00:14:56;6.00;99.90
21559;DHT22;10940;48.890;8.240;2023-12-20T00:17:21;5.90;99.90
21559;DHT22;10940;48.890;8.240;2023-12-20T00:19:47;5.90;99.90
21559;DHT22;10940;48.890;8.240;2023-12-20T00:22:13;5.90;99.90
21559;DHT22;10940;48.890;8.240;2023-12-20T00:24:38;5.90;99.90
21559;DHT22;10940;48.890;8.240;2023-12-20T00:27:04;5.90;99.90
21559;DHT22;10940;48.890;8.240;2023-12-20T00:29:30;5.90;99.90
21559;DHT22;10940;48.890;8.240;2023-12-20T00:31:55;5.90;99.90
21559;DHT22;10940;48.890;8.240;2023-12-20T00:34:21;5.90;99.90
21559;DHT22;10940;48.890;8.240;2023-12-20T00:36:46;5.90;99.90
21559;DHT22;10940;48.890;8.240;2023-12-20T00:39:12;5.90;99.90
21559;DHT22;10940;48.890;8.240;2023-12-20T00:41:38;5.90;99.90
21559;DHT22;10940;48.890;8.240;2023-12-20T00:44:04;5.90;99.90
21559;DHT22;10940;48.890;8.240;2023-12-20T00:46:29;5.90;99.90
21559;DHT22;10940;48.890;8.240;2023-12-20T00:48:55;5.90;99.90
21559;DHT22;10940;48.890;8.240;2023-12-20T00:51:21;5.90;99.90
21559;DHT22;10940;48.890;8.240;2023-12-20T00:53:49;5.90;99.90
21559;DHT22;10940;48.890;8.240;2023-12-20T00:56:15;5.90;99.90
21559;DHT22;10940;48.890;8.240;2023-12-20T00:58:41;5.90;99.90
21559;DHT22;10940;48.890;8.240;2023-12-20T01:01:06;5.90;99.90
21559;DHT22;10940;48.890;8.240;2023-12-20T01:03:32;5.90;99.90
21559;DHT22;10940;48.890;8.240;2023-12-20T01:05:58;5.90;99.90
21559;DHT22;10940;48.890;8.240;2023-12-20T01:08:23;6.00;99.90
21559;DHT22;10940;48.890;8.240;2023-12-20T01:10:49;5.90;99.90
21559;DHT22;10940;48.890;8.240;2023-12-20T01:13:14;5.90;99.90
21559;DHT22;10940;48.890;8.240;2023-12-20T01:15:40;5.90;99.90
21559;DHT22;10940;48.890;8.240;2023-12-20T01:18:06;5.90;99.90
21559;DHT22;10940;48.890;8.240;2023-12-20T01:20:31;6.00;99.90
21559;DHT22;10940;48.890;8.240;2023-12-20T01:22:57;5.90;99.90
21559;DHT22;10940;48.890;8.240;2023-12-20T01:25:22;5.90;99.90
21559;DHT22;10940;48.890;8.240;2023-12-20T01:27:48;5.90;99.90
21559;DHT22;10940;48.890;8.240;2023-12-20T01:30:14;5.90;99.90
21559;DHT22;10940;48.890;8.240;2023-12-20T01:32:40;5.90;99.90
21559;DHT22;10940;48.890;8.240;2023-12-20T01:35:06;5.90;99.90
21559;DHT22;10940;48.890;8.240;2023-12-20T01:37:32;5.90;99.90
21559;DHT22;10940;48.890;8.240;2023-12-20T01:39:58;5.90;99.90
21559;DHT22;10940;48.890;8.240;2023-12-20T01:42:24;5.90;99.90
21559;DHT22;10940;48.890;8.240;2023-12-20T01:44:49;5.90;99.90
21559;DHT22;10940;48.890;8.240;2023-12-20T01:47:15;5.90;99.90
21559;DHT22;10940;48.890;8.240;2023-12-20T01:49:41;6.00;99.90
21559;DHT22;10940;48.890;8.240;2023-12-20T01:52:08;5.90;99.90
21559;DHT22;10940;48.890;8.240;2023-12-20T01:54:35;5.90;99.90
21559;DHT22;10940;48.890;8.240;2023-12-20T01:57:01;5.90;99.90
21559;DHT22;10940;48.890;8.240;2023-12-20T01:59:28;5.90;99.90
21559;DHT22;10940;48.890;8.240;2023-12-20T02:01:55;5.90;99.90
21559;DHT22;10940;48.890;8.240;2023-12-20T02:04:20;5.90;99.90
21559;DHT22;10940;48.890;8.240;2023-12-20T02:06:47;5.90;99.90
21559;DHT22;10940;48.890;8.240;2023-12-20T02:09:14;5.90;99.90
21559;DHT22;10940;48.890;8.240;2023-12-20T02:11:40;5.90;99.90
21559;DHT22;10940;48.890;8.240;2023-12-20T02:14:06;5.90;99.90
21559;DHT22;10940;48.890;8.240;2023-12-20T02:16:31;5.90;99.90
21559;DHT22;10940;48.890;8.240;2023-12-20T02:18:57;5.90;99.90
21559;DHT22;10940;48.890;8.240;2023-12-20T02:21:32;6.00;99.90
21559;DHT22;10940;48.890;8.240;2023-12-20T02:23:58;5.90;99.90
21559;DHT22;10940;48.890;8.240;2023-12-20T02:26:23;5.90;99.90
21559;DHT22;10940;48.890;8.240;2023-12-20T02:28:49;5.90;99.90
21559;DHT22;10940;48.890;8.240;2023-12-20T02:31:15;6.00;99.90
21559;DHT22;10940;48.890;8.240;2023-12-20T02:33:40;6.00;99.90
21559;DHT22;10940;48.890;8.240;2023-12-20T02:36:07;5.90;99.90
21559;DHT22;10940;48.890;8.240;2023-12-20T02:38:33;6.00;99.90
21559;DHT22;10940;48.890;8.240;2023-12-20T02:40:59;6.00;99.90
21559;DHT22;10940;48.890;8.240;2023-12-20T02:43:25;5.90;99.90
21559;DHT22;10940;48.890;8.240;2023-12-20T02:45:50;5.90;99.90
21559;DHT22;10940;48.890;8.240;2023-12-20T02:48:16;5.90;99.90
21559;DHT22;10940;48.890;8.240;2023-12-20T02:50:41;6.00;99.90
21559;DHT22;10940;48.890;8.240;2023-12-20T02:53:07;6.00;99.90
21559;DHT22;10940;48.890;8.240;2023-12-20T02:55:33;6.00;99.90
21559;DHT22;10940;48.890;8.240;2023-12-20T02:57:58;6.00;99.90
21559;DHT22;10940;48.890;8.240;2023-12-20T03:00:24;6.00;99.90
21559;DHT22;10940;48.890;8.240;2023-12-20T03:02:49;6.00;99.90
21559;DHT22;10940;48.890;8.240;2023-12-20T03:05:15;6.00;99.90
21559;DHT22;10940;48.890;8.240;2023-12-20T03:07:40;6.00;99.90
21559;DHT22;10940;48.890;8.240;2023-12-20T03:10:06;6.00;99.90
21559;DHT22;10940;48.890;8.240;2023-12-20T03:12:33;6.00;99.90
21559;DHT22;10940;48.890;8.240;2023-12-20T03:14:59;6.00;99.90
21559;DHT22;10940;48.890;8.240;2023-12-20T03:17:24;6.00;99.90
21559;DHT22;10940;48.890;8.240;2023-12-20T03:19:50;6.00;99.90
21559;DHT22;10940;48.890;8.240;2023-12-20T03:22:15;6.00;99.90
21559;DHT22;10940;48.890;8.240;2023-12-20T03:24:41;6.00;99.90
21559;DHT22;10940;48.890;8.240;2023-12-20T03:27:07;6.00;99.90
21559;DHT22;10940;48.890;8.240;2023-12-20T03:29:32;6.00;99.90
21559;DHT22;10940;48.890;8.240;2023-12-20T03:31:58;6.00;99.90
21559;DHT22;10940;48.890;8.240;2023-12-20T03:34:24;6.00;99.90
21559;DHT22;10940;48.890;8.240;2023-12-20T03:36:49;6.00;99.90
21559;DHT22;10940;48.890;8.240;2023-12-20T03:39:15;6.00;99.90
21559;DHT22;10940;48.890;8.240;2023-12-20T03:41:40;6.00;99.90
21559;DHT22;10940;48.890;8.240;2023-12-20T03:44:06;6.00;99.90
21559;DHT22;10940;48.890;8.240;2023-12-20T03:46:31;6.00;99.90
21559;DHT22;10940;48.890;8.240;2023-12-20T03:48:57;6.00;99.90
21559;DHT22;10940;48.890;8.240;2023-12-20T03:51:23;6.00;99.90
21559;DHT22;10940;48.890;8.240;2023-12-20T03:53:48;6.00;99.90
21559;DHT22;10940;48.890;8.240;2023-12-20T03:56:14;6.00;99.90
21559;DHT22;10940;48.890;8.240;2023-12-20T03:58:39;6.00;99.90
21559;DHT22;10940;48.890;8.240;2023-12-20T04:01:09;6.00;99.90
21559;DHT22;10940;48.890;8.240;2023-12-20T04:03:36;6.10;99.90
21559;DHT22;10940;48.890;8.240;2023-12-20T04:06:01;6.00;99.90
21559;DHT22;10940;48.890;8.240;2023-12-20T04:08:27;6.10;99.90
21559;DHT22;10940;48.890;8.240;2023-12-20T04:10:52;6.10;99.90
21559;DHT22;10940;48.890;8.240;2023-12-20T04:13:18;6.10;99.90
21559;DHT22;10940;48.890;8.240;2023-12-20T04:15:43;6.10;99.90
21559;DHT22;10940;48.890;8.240;2023-12-20T04:18:09;6.10;99.90
21559;DHT22;10940;48.890;8.240;2023-12-20T04:20:35;6.10;99.90
21559;DHT22;10940;48.890;8.240;2023-12-20T04:23:01;6.10;99.90
21559;DHT22;10940;48.890;8.240;2023-12-20T04:25:26;6.10;99.90
21559;DHT22;10940;48.890;8.240;2023-12-20T04:27:52;6.10;99.90
21559;DHT22;10940;48.890;8.240;2023-12-20T04:30:17;6.10;99.90
21559;DHT22;10940;48.890;8.240;2023-12-20T04:32:43;6.10;99.90
21559;DHT22;10940;48.890;8.240;2023-12-20T04:35:09;6.10;99.90
21559;DHT22;10940;48.890;8.240;2023-12-20T04:37:35;6.20;99.90
21559;DHT22;10940;48.890;8.240;2023-12-20T04:40:00;6.20;99.90
21559;DHT22;10940;48.890;8.240;2023-12-20T04:42:26;6.20;99.90
21559;DHT22;10940;48.890;8.240;2023-12-20T04:44:52;6.20;99.90
21559;DHT22;10940;48.890;8.240;2023-12-20T04:47:17;6.20;99.90
21559;DHT22;10940;48.890;8.240;2023-12-20T04:49:43;6.20;99.90
21559;DHT22;10940;48.890;8.240;2023-12-20T04:52:09;6.20;99.90
21559;DHT22;10940;48.890;8.240;2023-12-20T04:54:34;6.20;99.90
21559;DHT22;10940;48.890;8.240;2023-12-20T04:57:00;6.20;99.90
21559;DHT22;10940;48.890;8.240;2023-12-20T04:59:25;6.20;99.90
21559;DHT22;10940;48.890;8.240;2023-12-20T05:01:51;6.20;99.90
21559;DHT22;10940;48.890;8.240;2023-12-20T05:04:17;6.20;99.90
21559;DHT22;10940;48.890;8.240;2023-12-20T05:06:43;6.20;99.90
21559;DHT22;10940;48.890;8.240;2023-12-20T05:09:08;6.20;99.90
21559;DHT22;10940;48.890;8.240;2023-12-20T05:11:34;6.30;99.90
21559;DHT22;10940;48.890;8.240;2023-12-20T05:14:00;6.20;99.90
21559;DHT22;10940;48.890;8.240;2023-12-20T05:16:25;6.20;99.90
21559;DHT22;10940;48.890;8.240;2023-12-20T05:18:51;6.20;99.90
21559;DHT22;10940;48.890;8.240;2023-12-20T05:21:18;6.20;99.90
21559;DHT22;10940;48.890;8.240;2023-12-20T05:23:43;6.30;99.90
21559;DHT22;10940;48.890;8.240;2023-12-20T05:26:09;6.30;99.90
21559;DHT22;10940;48.890;8.240;2023-12-20T05:28:34;6.30;99.90
21559;DHT22;10940;48.890;8.240;2023-12-20T05:31:00;6.30;99.90
21559;DHT22;10940;48.890;8.240;2023-12-20T05:33:26;6.30;99.90
21559;DHT22;10940;48.890;8.240;2023-12-20T05:35:51;6.30;99.90
21559;DHT22;10940;48.890;8.240;2023-12-20T05:38:17;6.30;99.90
21559;DHT22;10940;48.890;8.240;2023-12-20T05:40:42;6.30;99.90
21559;DHT22;10940;48.890;8.240;2023-12-20T05:43:08;6.30;99.90
21559;DHT22;10940;48.890;8.240;2023-12-20T05:45:34;6.30;99.90
21559;DHT22;10940;48.890;8.240;2023-12-20T05:48:00;6.30;99.90
21559;DHT22;10940;48.890;8.240;2023-12-20T05:50:25;6.30;99.90
21559;DHT22;10940;48.890;8.240;2023-12-20T05:52:51;6.30;99.90
21559;DHT22;10940;48.890;8.240;2023-12-20T05:55:17;6.30;99.90
21559;DHT22;10940;48.890;8.240;2023-12-20T05:57:42;6.30;99.90
21559;DHT22;10940;48.890;8.240;2023-12-20T06:00:09;6.30;99.90
21559;DHT22;10940;48.890;8.240;2023-12-20T06:02:35;6.30;99.90
21559;DHT22;10940;48.890;8.240;2023-12-20T06:05:03;6.30;99.90
21559;DHT22;10940;48.890;8.240;2023-12-20T06:07:29;6.30;99.90
21559;DHT22;10940;48.890;8.240;2023-12-20T06:09:55;6.30;99.90
21559;DHT22;10940;48.890;8.240;2023-12-20T06:12:20;6.30;99.90
21559;DHT22;10940;48.890;8.240;2023-12-20T06:14:46;6.30;99.90
21559;DHT22;10940;48.890;8.240;2023-12-20T06:17:11;6.30;99.90
21559;DHT22;10940;48.890;8.240;2023-12-20T06:19:37;6.30;99.90
21559;DHT22;10940;48.890;8.240;2023-12-20T06:22:03;6.30;99.90
21559;DHT22;10940;48.890;8.240;2023-12-20T06:24:29;6.30;99.90
21559;DHT22;10940;48.890;8.240;2023-12-20T06:26:55;6.30;99.90
21559;DHT22;10940;48.890;8.240;2023-12-20T06:29:20;6.30;99.90
21559;DHT22;10940;48.890;8.240;2023-12-20T06:31:46;6.30;99.90
21559;DHT22;10940;48.890;8.240;2023-12-20T06:34:12;6.30;99.90
21559;DHT22;10940;48.890;8.240;2023-12-20T06:36:37;6.30;99.90
21559;DHT22;10940;48.890;8.240;2023-12-20T06:39:03;6.30;99.90
21559;DHT22;10940;48.890;8.240;2023-12-20T06:41:30;6.30;99.90
21559;DHT22;10940;48.890;8.240;2023-12-20T06:43:55;6.30;99.90
21559;DHT22;10940;48.890;8.240;2023-12-20T06:46:21;6.30;99.90
21559;DHT22;10940;48.890;8.240;2023-12-20T06:48:46;6.30;99.90
21559;DHT22;10940;48.890;8.240;2023-12-20T06:51:16;6.30;99.90
21559;DHT22;10940;48.890;8.240;2023-12-20T06:53:42;6.30;99.90
21559;DHT22;10940;48.890;8.240;2023-12-20T06:56:10;6.30;99.90
21559;DHT22;10940;48.890;8.240;2023-12-20T06:58:35;6.30;99.90
21559;DHT22;10940;48.890;8.240;2023-12-20T07:01:02;6.40;99.90
21559;DHT22;10940;48.890;8.240;2023-12-20T07:03:27;6.40;99.90
21559;DHT22;10940;48.890;8.240;2023-12-20T07:05:53;6.40;99.90
21559;DHT22;10940;48.890;8.240;2023-12-20T07:08:18;6.30;99.90
21559;DHT22;10940;48.890;8.240;2023-12-20T07:10:44;6.30;99.90
21559;DHT22;10940;48.890;8.240;2023-12-20T07:13:10;6.30;99.90
21559;DHT22;10940;48.890;8.240;2023-12-20T07:15:35;6.20;99.90
21559;DHT22;10940;48.890;8.240;2023-12-20T07:18:02;6.20;99.90
21559;DHT22;10940;48.890;8.240;2023-12-20T07:20:27;6.10;99.90
21559;DHT22;10940;48.890;8.240;2023-12-20T07:22:53;6.00;99.90
21559;DHT22;10940;48.890;8.240;2023-12-20T07:25:18;6.00;99.90
21559;DHT22;10940;48.890;8.240;2023-12-20T07:27:45;5.90;99.90
21559;DHT22;10940;48.890;8.240;2023-12-20T07:30:11;5.90;99.90
21559;DHT22;10940;48.890;8.240;2023-12-20T07:32:37;5.90;99.90
21559;DHT22;10940;48.890;8.240;2023-12-20T07:35:03;5.90;99.90
21559;DHT22;10940;48.890;8.240;2023-12-20T07:37:28;5.80;99.90
21559;DHT22;10940;48.890;8.240;2023-12-20T07:39:54;5.70;99.90
21559;DHT22;10940;48.890;8.240;2023-12-20T07:42:19;5.70;99.90
21559;DHT22;10940;48.890;8.240;2023-12-20T07:44:47;5.70;99.90
21559;DHT22;10940;48.890;8.240;2023-12-20T07:47:13;5.60;99.90
21559;DHT22;10940;48.890;8.240;2023-12-20T07:49:42;5.60;99.90
21559;DHT22;10940;48.890;8.240;2023-12-20T07:52:08;5.60;99.90
21559;DHT22;10940;48.890;8.240;2023-12-20T07:54:34;5.60;99.90
21559;DHT22;10940;48.890;8.240;2023-12-20T07:57:00;5.60;99.90
21559;DHT22;10940;48.890;8.240;2023-12-20T07:59:25;5.50;99.90
21559;DHT22;10940;48.890;8.240;2023-12-20T08:01:51;5.50;99.90
21559;DHT22;10940;48.890;8.240;2023-12-20T08:04:16;5.50;99.90
21559;DHT22;10940;48.890;8.240;2023-12-20T08:06:42;5.50;99.90
21559;DHT22;10940;48.890;8.240;2023-12-20T08:09:08;5.50;99.90
21559;DHT22;10940;48.890;8.240;2023-12-20T08:11:33;5.50;99.90
21559;DHT22;10940;48.890;8.240;2023-12-20T08:13:59;5.50;99.90
21559;DHT22;10940;48.890;8.240;2023-12-20T08:16:24;5.50;99.90
21559;DHT22;10940;48.890;8.240;2023-12-20T08:18:51;5.50;99.90
21559;DHT22;10940;48.890;8.240;2023-12-20T08:21:17;5.40;99.90
21559;DHT22;10940;48.890;8.240;2023-12-20T08:23:45;5.50;99.90
21559;DHT22;10940;48.890;8.240;2023-12-20T08:26:11;5.50;99.90
21559;DHT22;10940;48.890;8.240;2023-12-20T08:28:37;5.60;99.90
21559;DHT22;10940;48.890;8.240;2023-12-20T08:31:03;5.60;99.90
21559;DHT22;10940;48.890;8.240;2023-12-20T08:33:28;5.70;99.90
21559;DHT22;10940;48.890;8.240;2023-12-20T08:35:54;5.70;99.90
21559;DHT22;10940;48.890;8.240;2023-12-20T08:38:20;5.70;99.90
21559;DHT22;10940;48.890;8.240;2023-12-20T08:40:45;5.70;99.90
21559;DHT22;10940;48.890;8.240;2023-12-20T08:43:11;5.70;99.90
21559;DHT22;10940;48.890;8.240;2023-12-20T08:45:37;5.70;99.90
21559;DHT22;10940;48.890;8.240;2023-12-20T08:48:04;5.70;99.90
21559;DHT22;10940;48.890;8.240;2023-12-20T08:50:30;5.70;99.90
21559;DHT22;10940;48.890;8.240;2023-12-20T08:52:56;5.80;99.90
21559;DHT22;10940;48.890;8.240;2023-12-20T08:55:21;5.80;99.90
21559;DHT22;10940;48.890;8.240;2023-12-20T08:57:47;5.80;99.90
21559;DHT22;10940;48.890;8.240;2023-12-20T09:00:13;5.90;99.90
21559;DHT22;10940;48.890;8.240;2023-12-20T09:02:39;6.00;99.90
21559;DHT22;10940;48.890;8.240;2023-12-20T09:05:05;6.00;99.90
21559;DHT22;10940;48.890;8.240;2023-12-20T09:07:30;6.10;99.90
21559;DHT22;10940;48.890;8.240;2023-12-20T09:09:57;6.10;99.90
21559;DHT22;10940;48.890;8.240;2023-12-20T09:12:23;6.10;99.90
21559;DHT22;10940;48.890;8.240;2023-12-20T09:14:50;6.20;99.90
21559;DHT22;10940;48.890;8.240;2023-12-20T09:17:17;6.20;99.90
21559;DHT22;10940;48.890;8.240;2023-12-20T09:19:43;6.20;99.90
21559;DHT22;10940;48.890;8.240;2023-12-20T09:22:12;6.30;99.90
21559;DHT22;10940;48.890;8.240;2023-12-20T09:24:37;6.30;99.90
21559;DHT22;10940;48.890;8.240;2023-12-20T09:27:04;6.30;99.90
21559;DHT22;10940;48.890;8.240;2023-12-20T09:29:31;6.40;99.90
21559;DHT22;10940;48.890;8.240;2023-12-20T09:31:57;6.40;99.90
21559;DHT22;10940;48.890;8.240;2023-12-20T09:34:23;6.40;99.90
21559;DHT22;10940;48.890;8.240;2023-12-20T09:36:49;6.40;99.90
21559;DHT22;10940;48.890;8.240;2023-12-20T09:39:17;6.50;99.90
21559;DHT22;10940;48.890;8.240;2023-12-20T09:42:07;6.50;99.90
21559;DHT22;10940;48.890;8.240;2023-12-20T09:44:33;6.60;99.90
21559;DHT22;10940;48.890;8.240;2023-12-20T09:47:05;6.60;99.90
21559;DHT22;10940;48.890;8.240;2023-12-20T09:49:33;6.60;99.90
21559;DHT22;10940;48.890;8.240;2023-12-20T09:52:00;6.70;99.90
21559;DHT22;10940;48.890;8.240;2023-12-20T09:54:28;6.70;99.90
21559;DHT22;10940;48.890;8.240;2023-12-20T09:56:53;6.70;99.90
21559;DHT22;10940;48.890;8.240;2023-12-20T09:59:19;6.70;99.90
21559;DHT22;10940;48.890;8.240;2023-12-20T10:01:45;6.70;99.90
21559;DHT22;10940;48.890;8.240;2023-12-20T10:04:12;6.80;99.90
21559;DHT22;10940;48.890;8.240;2023-12-20T10:06:42;6.80;99.90
21559;DHT22;10940;48.890;8.240;2023-12-20T10:09:10;6.80;99.90
21559;DHT22;10940;48.890;8.240;2023-12-20T10:11:36;6.80;99.90
21559;DHT22;10940;48.890;8.240;2023-12-20T10:14:06;6.80;99.90
21559;DHT22;10940;48.890;8.240;2023-12-20T10:16:33;6.90;99.90
21559;DHT22;10940;48.890;8.240;2023-12-20T10:18:59;6.90;99.90
21559;DHT22;10940;48.890;8.240;2023-12-20T10:21:26;6.90;99.90
21559;DHT22;10940;48.890;8.240;2023-12-20T10:23:54;6.90;99.90
21559;DHT22;10940;48.890;8.240;2023-12-20T10:26:21;6.90;99.90
21559;DHT22;10940;48.890;8.240;2023-12-20T10:28:50;6.90;99.90
21559;DHT22;10940;48.890;8.240;2023-12-20T10:31:35;6.90;99.90
21559;DHT22;10940;48.890;8.240;2023-12-20T10:34:01;7.00;99.90
21559;DHT22;10940;48.890;8.240;2023-12-20T10:36:31;7.00;99.90
21559;DHT22;10940;48.890;8.240;2023-12-20T10:38:58;6.90;99.90
21559;DHT22;10940;48.890;8.240;2023-12-20T10:41:32;6.90;99.90
21559;DHT22;10940;48.890;8.240;2023-12-20T10:44:02;7.00;99.90
21559;DHT22;10940;48.890;8.240;2023-12-20T10:46:29;7.00;99.90
21559;DHT22;10940;48.890;8.240;2023-12-20T10:48:56;7.00;99.90
21559;DHT22;10940;48.890;8.240;2023-12-20T10:51:22;7.00;99.90
21559;DHT22;10940;48.890;8.240;2023-12-20T10:53:50;7.10;99.90
21559;DHT22;10940;48.890;8.240;2023-12-20T10:56:17;7.10;99.90
21559;DHT22;10940;48.890;8.240;2023-12-20T10:58:44;7.10;99.90
21559;DHT22;10940;48.890;8.240;2023-12-20T11:01:13;7.20;99.90
21559;DHT22;10940;48.890;8.240;2023-12-20T11:03:52;7.30;99.90
21559;DHT22;10940;48.890;8.240;2023-12-20T11:11:31;7.40;99.90
21559;DHT22;10940;48.890;8.240;2023-12-20T11:14:02;7.40;99.90
21559;DHT22;10940;48.890;8.240;2023-12-20T11:16:31;7.40;99.90
21559;DHT22;10940;48.890;8.240;2023-12-20T11:18:57;7.40;99.90
21559;DHT22;10940;48.890;8.240;2023-12-20T11:21:23;7.40;99.90
21559;DHT22;10940;48.890;8.240;2023-12-20T11:23:48;7.50;99.90
21559;DHT22;10940;48.890;8.240;2023-12-20T11:26:26;7.50;99.90
21559;DHT22;10940;48.890;8.240;2023-12-20T11:28:53;7.50;99.90
21559;DHT22;10940;48.890;8.240;2023-12-20T11:31:18;7.50;99.90
21559;DHT22;10940;48.890;8.240;2023-12-20T11:33:44;7.50;99.90
21559;DHT22;10940;48.890;8.240;2023-12-20T11:36:14;7.50;99.90
21559;DHT22;10940;48.890;8.240;2023-12-20T11:38:57;7.50;99.90
21559;DHT22;10940;48.890;8.240;2023-12-20T11:41:23;7.40;99.90
21559;DHT22;10940;48.890;8.240;2023-12-20T11:43:55;7.40;99.90
21559;DHT22;10940;48.890;8.240;2023-12-20T11:46:21;7.40;99.90
21559;DHT22;10940;48.890;8.240;2023-12-20T11:48:48;7.30;99.90
21559;DHT22;10940;48.890;8.240;2023-12-20T11:51:13;7.30;99.90
21559;DHT22;10940;48.890;8.240;2023-12-20T11:53:40;7.20;99.90
21559;DHT22;10940;48.890;8.240;2023-12-20T11:56:08;7.20;99.90
21559;DHT22;10940;48.890;8.240;2023-12-20T11:58:34;7.20;99.90
21559;DHT22;10940;48.890;8.240;2023-12-20T12:00:59;7.20;99.90
21559;DHT22;10940;48.890;8.240;2023-12-20T12:03:25;7.20;99.90
21559;DHT22;10940;48.890;8.240;2023-12-20T12:05:51;7.20;99.90
21559;DHT22;10940;48.890;8.240;2023-12-20T12:08:17;7.30;99.90
21559;DHT22;10940;48.890;8.240;2023-12-20T12:10:44;7.30;99.90
21559;DHT22;10940;48.890;8.240;2023-12-20T12:13:10;7.30;99.90
21559;DHT22;10940;48.890;8.240;2023-12-20T12:15:36;7.40;99.90
21559;DHT22;10940;48.890;8.240;2023-12-20T12:18:03;7.40;99.90
21559;DHT22;10940;48.890;8.240;2023-12-20T12:20:30;7.50;99.90
21559;DHT22;10940;48.890;8.240;2023-12-20T12:23:04;7.50;99.90
21559;DHT22;10940;48.890;8.240;2023-12-20T12:25:31;7.50;99.90
21559;DHT22;10940;48.890;8.240;2023-12-20T12:28:00;7.50;99.90
21559;DHT22;10940;48.890;8.240;2023-12-20T12:30:26;7.50;99.90
21559;DHT22;10940;48.890;8.240;2023-12-20T12:32:52;7.50;99.90
21559;DHT22;10940;48.890;8.240;2023-12-20T12:35:19;7.50;99.90
21559;DHT22;10940;48.890;8.240;2023-12-20T12:37:45;7.60;99.90
21559;DHT22;10940;48.890;8.240;2023-12-20T12:40:12;7.50;99.90
21559;DHT22;10940;48.890;8.240;2023-12-20T12:42:39;7.50;99.90
21559;DHT22;10940;48.890;8.240;2023-12-20T12:45:05;7.50;99.90
21559;DHT22;10940;48.890;8.240;2023-12-20T12:47:31;7.50;99.90
21559;DHT22;10940;48.890;8.240;2023-12-20T12:49:57;7.40;99.90
21559;DHT22;10940;48.890;8.240;2023-12-20T12:52:22;7.40;99.90
21559;DHT22;10940;48.890;8.240;2023-12-20T12:54:48;7.40;99.90
21559;DHT22;10940;48.890;8.240;2023-12-20T12:57:14;7.30;99.90
21559;DHT22;10940;48.890;8.240;2023-12-20T12:59:42;7.30;99.90
21559;DHT22;10940;48.890;8.240;2023-12-20T13:02:09;7.30;99.90
21559;DHT22;10940;48.890;8.240;2023-12-20T13:04:34;7.30;99.90
21559;DHT22;10940;48.890;8.240;2023-12-20T13:07:00;7.20;99.90
21559;DHT22;10940;48.890;8.240;2023-12-20T13:09:26;7.30;99.90
21559;DHT22;10940;48.890;8.240;2023-12-20T13:11:51;7.20;99.90
21559;DHT22;10940;48.890;8.240;2023-12-20T13:14:17;7.20;99.90
21559;DHT22;10940;48.890;8.240;2023-12-20T13:16:43;7.20;99.90
21559;DHT22;10940;48.890;8.240;2023-12-20T13:19:10;7.20;99.90
21559;DHT22;10940;48.890;8.240;2023-12-20T13:21:35;7.20;99.90
21559;DHT22;10940;48.890;8.240;2023-12-20T13:24:01;7.20;99.90
21559;DHT22;10940;48.890;8.240;2023-12-20T13:26:27;7.20;99.90
21559;DHT22;10940;48.890;8.240;2023-12-20T13:28:53;7.20;99.90
21559;DHT22;10940;48.890;8.240;2023-12-20T13:31:19;7.20;99.90
21559;DHT22;10940;48.890;8.240;2023-12-20T13:33:46;7.20;99.90
21559;DHT22;10940;48.890;8.240;2023-12-20T13:36:11;7.20;99.90
21559;DHT22;10940;48.890;8.240;2023-12-20T13:38:37;7.20;99.90
21559;DHT22;10940;48.890;8.240;2023-12-20T13:41:03;7.20;99.90
21559;DHT22;10940;48.890;8.240;2023-12-20T13:43:31;7.20;99.90
21559;DHT22;10940;48.890;8.240;2023-12-20T13:45:58;7.20;99.90
21559;DHT22;10940;48.890;8.240;2023-12-20T13:48:24;7.20;99.90
21559;DHT22;10940;48.890;8.240;2023-12-20T13:50:49;7.20;99.90
21559;DHT22;10940;48.890;8.240;2023-12-20T13:53:15;7.20;99.90
21559;DHT22;10940;48.890;8.240;2023-12-20T13:55:41;7.20;99.90
21559;DHT22;10940;48.890;8.240;2023-12-20T13:58:06;7.20;99.90
21559;DHT22;10940;48.890;8.240;2023-12-20T14:00:32;7.20;99.90
21559;DHT22;10940;48.890;8.240;2023-12-20T14:02:58;7.20;99.90
21559;DHT22;10940;48.890;8.240;2023-12-20T14:05:24;7.20;99.90
21559;DHT22;10940;48.890;8.240;2023-12-20T14:07:49;7.20;99.90
21559;DHT22;10940;48.890;8.240;2023-12-20T14:10:15;7.20;99.90
21559;DHT22;10940;48.890;8.240;2023-12-20T14:12:41;7.20;99.90
21559;DHT22;10940;48.890;8.240;2023-12-20T14:15:07;7.20;99.90
21559;DHT22;10940;48.890;8.240;2023-12-20T14:17:39;7.20;99.90
21559;DHT22;10940;48.890;8.240;2023-12-20T14:20:06;7.20;99.90
21559;DHT22;10940;48.890;8.240;2023-12-20T14:22:32;7.20;99.90
21559;DHT22;10940;48.890;8.240;2023-12-20T14:24:58;7.30;99.90
21559;DHT22;10940;48.890;8.240;2023-12-20T14:27:23;7.20;99.90
21559;DHT22;10940;48.890;8.240;2023-12-20T14:29:53;7.20;99.90
21559;DHT22;10940;48.890;8.240;2023-12-20T14:32:19;7.20;99.90
21559;DHT22;10940;48.890;8.240;2023-12-20T14:34:45;7.10;99.90
21559;DHT22;10940;48.890;8.240;2023-12-20T14:37:10;7.20;99.90
21559;DHT22;10940;48.890;8.240;2023-12-20T14:39:36;7.10;99.90
21559;DHT22;10940;48.890;8.240;2023-12-20T14:42:07;7.10;99.90
21559;DHT22;10940;48.890;8.240;2023-12-20T14:44:36;7.00;99.90
21559;DHT22;10940;48.890;8.240;2023-12-20T14:47:03;7.00;99.90
21559;DHT22;10940;48.890;8.240;2023-12-20T14:49:28;7.00;99.90
21559;DHT22;10940;48.890;8.240;2023-12-20T14:51:54;7.00;99.90
21559;DHT22;10940;48.890;8.240;2023-12-20T14:54:19;7.00;99.90
21559;DHT22;10940;48.890;8.240;2023-12-20T14:56:46;7.00;99.90
21559;DHT22;10940;48.890;8.240;2023-12-20T14:59:12;7.00;99.90
21559;DHT22;10940;48.890;8.240;2023-12-20T15:01:38;7.00;99.90
21559;DHT22;10940;48.890;8.240;2023-12-20T15:04:06;7.00;99.90
21559;DHT22;10940;48.890;8.240;2023-12-20T15:06:31;7.00;99.90
21559;DHT22;10940;48.890;8.240;2023-12-20T15:08:58;7.00;99.90
21559;DHT22;10940;48.890;8.240;2023-12-20T15:11:24;7.00;99.90
21559;DHT22;10940;48.890;8.240;2023-12-20T15:13:49;7.00;99.90
21559;DHT22;10940;48.890;8.240;2023-12-20T15:16:20;7.00;99.90
21559;DHT22;10940;48.890;8.240;2023-12-20T15:18:46;7.00;99.90
21559;DHT22;10940;48.890;8.240;2023-12-20T15:21:12;7.00;99.90
21559;DHT22;10940;48.890;8.240;2023-12-20T15:23:37;7.00;99.90
21559;DHT22;10940;48.890;8.240;2023-12-20T15:26:03;7.00;99.90
21559;DHT22;10940;48.890;8.240;2023-12-20T15:28:30;7.00;99.90
21559;DHT22;10940;48.890;8.240;2023-12-20T15:30:55;7.00;99.90
21559;DHT22;10940;48.890;8.240;2023-12-20T15:33:22;7.00;99.90
21559;DHT22;10940;48.890;8.240;2023-12-20T15:35:47;6.90;99.90
21559;DHT22;10940;48.890;8.240;2023-12-20T15:38:13;6.90;99.90
21559;DHT22;10940;48.890;8.240;2023-12-20T15:40:39;6.90;99.90
21559;DHT22;10940;48.890;8.240;2023-12-20T15:43:04;6.90;99.90